Mikkeli, Finland

4:38 PM EET on December 05, 2016 (GMT +0200)
Mikkeli | | Change Station

Elev 453 ft 61.69 °N, 27.20 °E | Updated 18 minutes ago

Light Snow
Light Snow
21 °F
Feels Like 10 °F
N
12
Wind Variable Wind from NW
Gusts 24 mph

Today
High -- | Low -- °F
--% Chance of Precip.
Yesterday
High -- | Low -- °F
Precip. -- in
Pressure 29.47 in
Visibility 6.2 miles
Clouds Mostly Cloudy 2100 ft
Windchill 10 °F
Dew Point 14 °F
Humidity 74%
Rainfall 0.00 in
Snow Depth Not available.
9:10 AM 2:52 PM
Waxing Crescent, 32% visible
METAR EFMI 051420Z AUTO 32010G21KT 230V020 9999 -SN BKN021 M06/M10 Q0998
Pressure 29.47 in
Visibility 6.2 miles
Clouds Mostly Cloudy 2100 ft
Windchill 10 °F
Dew Point 14 °F
Humidity 74%
Rainfall 0.00 in
Snow Depth Not available.
9:10 AM 2:52 PM
Waxing Crescent, 32% visible
METAR EFMI 051420Z AUTO 32010G21KT 230V020 9999 -SN BKN021 M06/M10 Q0998

10-Day Weather Forecast

×

Almanac

Astronomy

Dec. 05, 2016 Rise Set
Actual Time
Civil Twilight
Nautical Twilight
Astronomical Twilight
Moon
Length of Visible Light
Length of Day
Tomorrow will be .
, % of the Moon is Illuminated

Today's Extremes

Country Highs Country Lows

Community

WunderPhotos

Upload Photos

1,955,782 photos uploaded!

WunderBlog® & News

Nearby

Air Quality

  Air Quality AQ Index Pollutant
Not available.

Snow Depth

Station Depth Elevation

Earthquake Activity

City Distance Mag. Time & Date
Minimum magnitude displayed is 2.5.

Coastal Water Temperatures

Place Temperature

Stations

Nearby Weather Stations

Station Location Temp. Windchill Dew Point Humidity Wind Precip. Elev Updated Type